createdAt,value
2017-11-25T00:00:03.677Z,55.31
2017-11-25T00:01:03.669Z,55.12
2017-11-25T00:02:03.664Z,55.41
2017-11-25T00:03:03.672Z,55.22
2017-11-25T00:04:03.673Z,55.89
2017-11-25T00:05:03.647Z,55.60
2017-11-25T00:06:03.640Z,55.60
2017-11-25T00:07:03.635Z,55.60
2017-11-25T00:08:03.631Z,55.60
2017-11-25T00:09:03.619Z,55.31
2017-11-25T00:10:03.614Z,55.31
2017-11-25T00:11:03.620Z,55.79
2017-11-25T00:12:03.611Z,55.51
2017-11-25T00:13:03.598Z,55.70
2017-11-25T00:14:03.584Z,55.60
2017-11-25T00:15:03.583Z,55.51
2017-11-25T00:16:03.576Z,55.79
2017-11-25T00:17:03.571Z,56.09
2017-11-25T00:18:03.569Z,56.09
2017-11-25T00:19:03.573Z,56.18
2017-11-25T00:20:03.560Z,56.27
2017-11-25T00:21:03.547Z,56.27
2017-11-25T00:22:03.546Z,56.27
2017-11-25T00:23:03.534Z,56.18
2017-11-25T00:24:03.527Z,56.09
2017-11-25T00:25:03.521Z,55.99
2017-11-25T00:26:03.523Z,56.18
2017-11-25T00:27:03.511Z,56.27
2017-11-25T00:28:03.498Z,56.37
2017-11-25T00:29:03.499Z,56.18
2017-11-25T00:30:03.493Z,56.37
2017-11-25T00:31:03.484Z,56.37
2017-11-25T00:32:03.479Z,56.47
2017-11-25T00:33:03.474Z,56.57
2017-11-25T00:34:03.468Z,56.37
2017-11-25T00:35:03.467Z,56.37
2017-11-25T00:36:03.456Z,56.37
2017-11-25T00:37:03.449Z,57.05
2017-11-25T00:38:03.441Z,56.85
2017-11-25T00:39:03.436Z,56.76
2017-11-25T00:40:03.428Z,56.85
2017-11-25T00:41:03.418Z,56.66
2017-11-25T00:42:03.423Z,56.66
2017-11-25T00:43:03.415Z,56.76
2017-11-25T00:44:03.413Z,56.76
2017-11-25T00:45:03.400Z,56.95
2017-11-25T00:46:03.395Z,56.85
2017-11-25T00:47:03.387Z,56.95
2017-11-25T00:48:03.379Z,56.95
2017-11-25T00:49:03.385Z,57.05
2017-11-25T00:50:03.381Z,56.95
2017-11-25T00:51:03.374Z,57.14
2017-11-25T00:52:03.362Z,57.14
2017-11-25T00:53:03.356Z,56.85
2017-11-25T00:54:03.347Z,56.85
2017-11-25T00:55:03.347Z,57.05
2017-11-25T00:56:03.336Z,56.95
2017-11-25T00:57:03.329Z,57.05
2017-11-25T00:58:03.325Z,56.57
2017-11-25T00:59:03.320Z,56.95
2017-11-25T01:00:03.318Z,56.76
2017-11-25T01:01:03.307Z,56.66
2017-11-25T01:02:03.294Z,56.66
2017-11-25T01:03:03.295Z,56.95
2017-11-25T01:04:03.286Z,56.85
2017-11-25T01:05:03.280Z,56.76
2017-11-25T01:06:03.282Z,56.76
2017-11-25T01:07:03.281Z,56.95
2017-11-25T01:08:03.264Z,56.76
2017-11-25T01:09:04.625Z,57.05
2017-11-25T01:10:03.251Z,57.05
2017-11-25T01:11:03.248Z,57.34
2017-11-25T01:12:03.240Z,57.05
2017-11-25T01:13:03.232Z,57.72
2017-11-25T01:14:03.233Z,57.53
2017-11-25T01:15:03.222Z,57.62
2017-11-25T01:16:03.219Z,57.24
2017-11-25T01:17:03.211Z,57.14
2017-11-25T01:18:03.201Z,57.34
2017-11-25T01:19:03.196Z,57.24
2017-11-25T01:20:03.192Z,57.43
2017-11-25T01:21:03.190Z,57.53
2017-11-25T01:22:03.183Z,57.72
2017-11-25T01:23:03.181Z,57.62
2017-11-25T01:24:03.170Z,57.82
2017-11-25T01:25:03.164Z,57.72
2017-11-25T01:26:03.156Z,57.82
2017-11-25T01:27:03.153Z,57.72
2017-11-25T01:28:03.153Z,57.92
2017-11-25T01:29:03.140Z,57.53
2017-11-25T01:30:03.133Z,57.53
2017-11-25T01:31:03.142Z,57.82
2017-11-25T01:32:03.124Z,58.11
2017-11-25T01:33:03.115Z,58.01
2017-11-25T01:34:03.154Z,57.62
2017-11-25T01:35:03.112Z,57.62
2017-11-25T01:36:03.102Z,57.72
2017-11-25T01:37:03.091Z,57.72
2017-11-25T01:38:03.085Z,57.72
2017-11-25T01:39:03.086Z,57.72
2017-11-25T01:40:03.083Z,57.62
2017-11-25T01:41:03.068Z,57.53
2017-11-25T01:42:03.065Z,57.72
2017-11-25T01:43:03.069Z,57.72
2017-11-25T01:44:03.876Z,57.72
2017-11-25T01:45:03.052Z,57.82
2017-11-25T01:46:03.039Z,57.62
2017-11-25T01:47:03.039Z,57.62
2017-11-25T01:48:03.030Z,57.43
2017-11-25T01:49:03.022Z,57.62
2017-11-25T01:50:03.019Z,57.62
2017-11-25T01:51:03.008Z,57.43
2017-11-25T01:52:03.005Z,57.53
2017-11-25T01:53:02.997Z,57.82
2017-11-25T01:54:02.990Z,57.53
2017-11-25T01:55:02.994Z,57.82
2017-11-25T01:56:02.980Z,58.01
2017-11-25T01:57:55.891Z,57.82
2017-11-25T01:58:55.852Z,57.72
2017-11-25T02:00:49.740Z,57.72
2017-11-25T02:01:49.712Z,57.72
2017-11-25T02:03:42.625Z,57.53
2017-11-25T02:04:42.588Z,57.72
2017-11-25T02:05:42.572Z,57.72
2017-11-25T02:06:42.572Z,57.62
2017-11-25T02:07:42.584Z,57.53
2017-11-25T02:08:42.565Z,57.92
2017-11-25T02:09:42.548Z,58.20
2017-11-25T02:10:42.543Z,58.20
2017-11-25T02:11:42.538Z,58.20
2017-11-25T02:12:42.529Z,58.20
2017-11-25T02:13:42.551Z,58.30
2017-11-25T02:14:42.520Z,58.11
2017-11-25T02:15:42.519Z,58.01
2017-11-25T02:16:42.508Z,58.11
2017-11-25T02:17:42.503Z,58.01
2017-11-25T02:18:42.501Z,58.11
2017-11-25T02:19:42.490Z,57.92
2017-11-25T02:20:42.485Z,58.01
2017-11-25T02:21:42.478Z,58.01
2017-11-25T02:22:42.478Z,58.11
2017-11-25T02:23:42.473Z,58.20
2017-11-25T02:24:42.460Z,58.20
2017-11-25T02:25:42.454Z,58.20
2017-11-25T02:26:42.453Z,58.11
2017-11-25T02:27:42.446Z,58.59
2017-11-25T02:28:42.435Z,58.59
2017-11-25T02:29:42.434Z,58.49
2017-11-25T02:30:42.428Z,58.49
2017-11-25T02:31:42.423Z,58.59
2017-11-25T02:32:42.420Z,58.49
2017-11-25T02:33:42.431Z,58.59
2017-11-25T02:34:42.403Z,58.59
2017-11-25T02:35:42.397Z,58.59
2017-11-25T02:36:42.395Z,58.49
2017-11-25T02:37:42.388Z,58.40
2017-11-25T02:38:42.381Z,58.49
2017-11-25T02:39:42.377Z,58.30
2017-11-25T02:40:42.368Z,58.30
2017-11-25T02:41:42.361Z,58.49
2017-11-25T02:42:42.358Z,58.11
2017-11-25T02:43:42.352Z,58.30
2017-11-25T02:44:42.351Z,58.30
2017-11-25T02:45:42.338Z,58.30
2017-11-25T02:46:42.335Z,58.20
2017-11-25T02:47:42.339Z,58.40
2017-11-25T02:48:42.328Z,58.40
2017-11-25T02:49:42.321Z,58.11
2017-11-25T02:50:42.316Z,58.30
2017-11-25T02:51:42.310Z,58.01
2017-11-25T02:52:42.299Z,58.40
2017-11-25T02:53:42.297Z,58.78
2017-11-25T02:54:42.287Z,58.40
2017-11-25T02:55:42.281Z,58.78
2017-11-25T02:56:42.282Z,58.78
2017-11-25T02:57:42.272Z,58.69
2017-11-25T02:58:42.265Z,58.59
2017-11-25T02:59:42.262Z,58.69
2017-11-25T03:00:42.257Z,58.30
2017-11-25T03:01:42.246Z,58.40
2017-11-25T03:02:42.238Z,58.30
2017-11-25T03:03:42.240Z,58.30
2017-11-25T03:04:42.244Z,58.30
2017-11-25T03:05:42.222Z,58.01
2017-11-25T03:06:42.215Z,58.49
2017-11-25T03:07:42.211Z,58.20
2017-11-25T03:08:42.207Z,58.01
2017-11-25T03:09:42.199Z,58.20
2017-11-25T03:10:42.197Z,58.30
2017-11-25T03:11:42.186Z,58.30
2017-11-25T03:12:42.189Z,58.20
2017-11-25T03:13:42.176Z,58.49
2017-11-25T03:14:42.173Z,58.30
2017-11-25T03:15:42.165Z,58.20
2017-11-25T03:16:42.161Z,58.49
2017-11-25T03:17:42.149Z,58.20
2017-11-25T03:18:42.148Z,58.69
2017-11-25T03:19:42.141Z,58.11
2017-11-25T03:20:42.141Z,58.30
2017-11-25T03:21:42.137Z,58.20
2017-11-25T03:22:42.125Z,58.30
2017-11-25T03:23:42.117Z,58.30
2017-11-25T03:24:42.113Z,58.30
2017-11-25T03:25:42.106Z,58.59
2017-11-25T03:26:42.113Z,58.30
2017-11-25T03:27:42.096Z,58.30
2017-11-25T03:28:42.092Z,58.20
2017-11-25T03:29:42.081Z,58.30
2017-11-25T03:30:42.099Z,58.59
2017-11-25T03:31:42.072Z,58.20
2017-11-25T03:32:42.069Z,58.30
2017-11-25T03:33:42.059Z,58.40
2017-11-25T03:34:42.058Z,58.40
2017-11-25T03:35:42.045Z,58.69
2017-11-25T03:36:42.047Z,58.88
2017-11-25T03:37:42.039Z,59.17
2017-11-25T03:38:42.036Z,58.97
2017-11-25T03:39:42.050Z,58.88
2017-11-25T03:40:42.021Z,58.88
2017-11-25T03:41:42.015Z,58.97
2017-11-25T03:42:42.012Z,58.88
2017-11-25T03:43:42.003Z,58.88
2017-11-25T03:44:41.999Z,58.97
2017-11-25T03:45:41.989Z,58.97
2017-11-25T03:46:41.987Z,58.97
2017-11-25T03:47:41.978Z,58.97
2017-11-25T03:48:41.971Z,58.97
2017-11-25T03:49:41.967Z,59.07
2017-11-25T03:50:41.964Z,58.97
2017-11-25T03:51:41.963Z,58.97
2017-11-25T03:52:41.950Z,58.88
2017-11-25T03:53:41.944Z,58.88
2017-11-25T03:54:41.937Z,59.07
2017-11-25T03:55:41.933Z,59.07
2017-11-25T03:56:41.929Z,59.07
2017-11-25T03:57:41.918Z,58.97
2017-11-25T03:58:41.915Z,59.17
2017-11-25T03:59:41.928Z,58.78
2017-11-25T04:00:41.902Z,58.88
2017-11-25T04:01:41.899Z,58.88
2017-11-25T04:02:41.893Z,58.78
2017-11-25T04:03:41.887Z,59.07
2017-11-25T04:04:41.880Z,58.69
2017-11-25T04:05:41.872Z,58.97
2017-11-25T04:06:41.871Z,59.07
2017-11-25T04:07:41.869Z,58.97
2017-11-25T04:08:41.856Z,58.97
2017-11-25T04:09:41.850Z,58.69
2017-11-25T04:10:41.844Z,58.40
2017-11-25T04:11:41.839Z,58.69
2017-11-25T04:12:41.835Z,58.20
2017-11-25T04:13:41.827Z,58.23
2017-11-25T04:14:41.822Z,58.42
2017-11-25T04:15:41.816Z,58.42
2017-11-25T04:16:41.811Z,58.42
2017-11-25T04:17:41.805Z,58.52
2017-11-25T04:18:41.797Z,58.33
2017-11-25T04:19:41.793Z,58.14
2017-11-25T04:20:41.783Z,58.14
2017-11-25T04:21:41.782Z,58.14
2017-11-25T04:22:41.775Z,58.14
2017-11-25T04:23:41.772Z,58.14
2017-11-25T04:24:41.771Z,58.04
2017-11-25T04:25:41.758Z,57.94
2017-11-25T04:26:41.756Z,58.23
2017-11-25T04:27:41.770Z,58.14
2017-11-25T04:28:41.743Z,58.33
2017-11-25T04:29:41.739Z,58.33
2017-11-25T04:30:41.730Z,58.14
2017-11-25T04:31:41.724Z,57.94
2017-11-25T04:32:41.721Z,58.04
2017-11-25T04:33:41.723Z,57.65
2017-11-25T04:34:41.708Z,57.75
2017-11-25T04:35:41.704Z,57.56
2017-11-25T04:36:41.699Z,57.75
2017-11-25T04:37:41.687Z,57.75
2017-11-25T04:38:41.682Z,57.75
2017-11-25T04:39:41.679Z,57.75
2017-11-25T04:40:41.673Z,57.75
2017-11-25T04:41:41.674Z,57.78
2017-11-25T04:42:41.669Z,57.75
2017-11-25T04:43:41.655Z,57.65
2017-11-25T04:44:41.655Z,57.65
2017-11-25T04:45:41.645Z,57.75
2017-11-25T04:46:41.639Z,57.65
2017-11-25T04:47:41.634Z,57.75
2017-11-25T04:48:41.628Z,57.56
2017-11-25T04:49:41.630Z,57.75
2017-11-25T04:50:41.615Z,57.85
2017-11-25T04:51:41.616Z,57.75
2017-11-25T04:52:41.606Z,57.75
2017-11-25T04:53:41.603Z,57.75
2017-11-25T04:54:41.593Z,57.75
2017-11-25T04:55:41.591Z,57.75
2017-11-25T04:56:41.586Z,57.56
2017-11-25T04:57:41.582Z,57.56
2017-11-25T04:58:41.569Z,58.04
2017-11-25T04:59:41.568Z,58.04
2017-11-25T05:00:41.561Z,58.23
2017-11-25T05:01:41.556Z,58.14
2017-11-25T05:02:41.549Z,58.23
2017-11-25T05:03:41.544Z,58.33
2017-11-25T05:04:41.538Z,58.33
2017-11-25T05:05:41.532Z,58.36
2017-11-25T05:06:41.537Z,58.33
2017-11-25T05:07:41.528Z,58.23
2017-11-25T05:08:41.521Z,58.23
2017-11-25T05:09:41.520Z,58.23
2017-11-25T05:10:41.511Z,58.33
2017-11-25T05:11:41.503Z,58.23
2017-11-25T05:12:41.497Z,58.33
2017-11-25T05:13:41.489Z,58.33
2017-11-25T05:14:41.486Z,58.04
2017-11-25T05:15:41.483Z,58.23
2017-11-25T05:16:41.473Z,58.33
2017-11-25T05:17:41.472Z,58.33
2017-11-25T05:18:41.460Z,58.23
2017-11-25T05:19:41.458Z,58.23
2017-11-25T05:20:41.451Z,58.42
2017-11-25T05:21:41.445Z,58.33
2017-11-25T05:22:41.659Z,58.33
2017-11-25T05:23:41.431Z,58.33
2017-11-25T05:24:41.442Z,58.33
2017-11-25T05:25:41.442Z,58.33
2017-11-25T05:26:41.424Z,58.23
2017-11-25T05:27:41.410Z,58.33
2017-11-25T05:28:41.410Z,58.33
2017-11-25T05:29:41.401Z,58.33
2017-11-25T05:30:41.398Z,58.23
2017-11-25T05:31:41.392Z,58.14
2017-11-25T05:32:41.390Z,58.33
2017-11-25T05:33:42.262Z,58.23
2017-11-25T05:34:41.376Z,58.33
2017-11-25T05:35:41.367Z,58.23
2017-11-25T05:36:41.368Z,58.33
2017-11-25T05:37:41.356Z,58.23
2017-11-25T05:38:41.352Z,58.33
2017-11-25T05:39:41.344Z,58.23
2017-11-25T05:40:41.339Z,58.23
2017-11-25T05:41:41.334Z,58.23
2017-11-25T05:42:41.329Z,58.23
2017-11-25T05:43:41.322Z,58.23
2017-11-25T05:44:41.319Z,58.23
2017-11-25T05:45:41.310Z,58.04
2017-11-25T05:46:41.308Z,58.04
2017-11-25T05:47:41.300Z,58.33
2017-11-25T05:48:41.298Z,58.04
2017-11-25T05:49:41.291Z,58.14
2017-11-25T05:50:41.283Z,58.14
2017-11-25T05:51:41.277Z,58.23
2017-11-25T05:52:41.273Z,58.14
2017-11-25T05:53:41.265Z,58.14
2017-11-25T05:54:41.262Z,58.04
2017-11-25T05:55:41.262Z,58.14
2017-11-25T05:56:41.250Z,58.23
2017-11-25T05:57:41.249Z,58.04
2017-11-25T05:58:41.245Z,58.14
2017-11-25T05:59:41.234Z,58.04
2017-11-25T06:00:41.237Z,58.04
2017-11-25T06:01:41.226Z,57.94
2017-11-25T06:02:41.216Z,58.23
2017-11-25T06:03:41.217Z,58.04
2017-11-25T06:04:41.204Z,58.42
2017-11-25T06:05:41.201Z,58.04
2017-11-25T06:06:41.202Z,58.04
2017-11-25T06:07:41.196Z,58.04
2017-11-25T06:08:41.186Z,58.04
2017-11-25T06:09:41.176Z,58.04
2017-11-25T06:10:41.173Z,58.04
2017-11-25T06:11:41.171Z,58.23
2017-11-25T06:12:41.162Z,58.33
2017-11-25T06:13:41.156Z,58.23
2017-11-25T06:14:41.152Z,58.14
2017-11-25T06:15:41.148Z,58.42
2017-11-25T06:16:41.142Z,58.42
2017-11-25T06:17:41.137Z,58.14
2017-11-25T06:18:41.138Z,58.62
2017-11-25T06:19:41.126Z,58.52
2017-11-25T06:20:41.118Z,58.72
2017-11-25T06:21:41.111Z,58.62
2017-11-25T06:22:41.105Z,58.62
2017-11-25T06:23:41.163Z,58.62
2017-11-25T06:24:41.105Z,58.14
2017-11-25T06:25:41.088Z,58.33
2017-11-25T06:26:41.089Z,58.23
2017-11-25T06:27:41.080Z,58.62
2017-11-25T06:28:41.075Z,58.62
2017-11-25T06:29:41.066Z,58.62
2017-11-25T06:30:41.064Z,58.23
2017-11-25T06:31:41.058Z,58.52
2017-11-25T06:32:41.052Z,58.62
2017-11-25T06:33:41.047Z,58.23
2017-11-25T06:34:41.042Z,58.62
2017-11-25T06:35:41.035Z,58.23
2017-11-25T06:36:41.037Z,58.62
2017-11-25T06:37:41.026Z,58.62
2017-11-25T06:38:41.015Z,58.33
2017-11-25T06:39:41.012Z,58.45
2017-11-25T06:40:41.007Z,58.33
2017-11-25T06:41:41.003Z,58.33
2017-11-25T06:42:40.995Z,58.14
2017-11-25T06:43:40.989Z,58.04
2017-11-25T06:44:40.985Z,58.33
2017-11-25T06:45:40.979Z,58.04
2017-11-25T06:46:40.973Z,58.04
2017-11-25T06:47:40.970Z,58.04
2017-11-25T06:48:40.964Z,57.94
2017-11-25T06:49:40.961Z,58.23
2017-11-25T06:50:40.955Z,58.42
2017-11-25T06:51:40.947Z,58.42
2017-11-25T06:52:40.969Z,57.94
2017-11-25T06:53:40.941Z,58.04
2017-11-25T06:54:40.929Z,58.33
2017-11-25T06:55:40.923Z,58.14
2017-11-25T06:56:40.917Z,58.33
2017-11-25T06:57:40.911Z,58.04
2017-11-25T06:58:40.913Z,58.04
2017-11-25T06:59:40.909Z,58.14
2017-11-25T07:00:40.895Z,58.17
2017-11-25T07:01:40.890Z,58.17
2017-11-25T07:02:40.889Z,58.04
2017-11-25T07:03:40.879Z,58.04
2017-11-25T07:04:40.876Z,58.33
2017-11-25T07:05:40.877Z,58.17
2017-11-25T07:06:40.861Z,58.07
2017-11-25T07:07:40.859Z,58.14
2017-11-25T07:08:40.853Z,58.04
2017-11-25T07:09:40.852Z,58.04
2017-11-25T07:10:40.845Z,58.04
2017-11-25T07:11:40.853Z,58.33
2017-11-25T07:12:40.832Z,58.04
2017-11-25T07:13:40.823Z,58.04
2017-11-25T07:14:40.815Z,58.33
2017-11-25T07:15:40.838Z,58.04
2017-11-25T07:16:40.822Z,58.14
2017-11-25T07:17:40.805Z,58.14
2017-11-25T07:18:40.806Z,57.94
2017-11-25T07:20:33.689Z,58.04
2017-11-25T07:21:33.670Z,58.04
2017-11-25T07:23:26.559Z,58.23
2017-11-25T07:24:26.534Z,58.04
2017-11-25T07:26:19.415Z,58.04
2017-11-25T07:27:19.402Z,57.85
2017-11-25T07:28:19.394Z,58.23
2017-11-25T07:29:19.390Z,58.14
2017-11-25T07:30:19.428Z,58.33
2017-11-25T07:31:19.376Z,58.72
2017-11-25T07:32:19.373Z,58.33
2017-11-25T07:33:19.365Z,58.14
2017-11-25T07:34:19.358Z,58.62
2017-11-25T07:35:19.357Z,58.62
2017-11-25T07:36:19.347Z,58.62
2017-11-25T07:37:19.342Z,58.62
2017-11-25T07:38:19.339Z,58.62
2017-11-25T07:39:19.332Z,58.42
2017-11-25T07:40:19.331Z,58.62
2017-11-25T07:41:19.321Z,58.52
2017-11-25T07:42:19.319Z,58.62
2017-11-25T07:43:19.310Z,58.62
2017-11-25T07:44:19.308Z,58.72
2017-11-25T07:45:19.299Z,58.62
2017-11-25T07:46:19.304Z,58.62
2017-11-25T07:47:19.289Z,58.52
2017-11-25T07:48:19.286Z,58.62
2017-11-25T07:49:19.279Z,58.62
2017-11-25T07:50:19.273Z,58.42
2017-11-25T07:51:19.274Z,58.42
2017-11-25T07:52:19.266Z,58.52
2017-11-25T07:53:19.254Z,58.42
2017-11-25T07:54:19.252Z,58.52
2017-11-25T07:55:19.247Z,58.42
2017-11-25T07:56:19.240Z,58.52
2017-11-25T07:57:19.231Z,58.62
2017-11-25T07:58:19.226Z,58.33
2017-11-25T07:59:19.228Z,58.33
2017-11-25T08:00:19.223Z,58.33
2017-11-25T08:01:19.210Z,58.23
2017-11-25T08:02:19.205Z,58.23
2017-11-25T08:03:19.199Z,58.23
2017-11-25T08:04:19.196Z,58.33
2017-11-25T08:05:19.198Z,58.33
2017-11-25T08:06:19.185Z,58.42
2017-11-25T08:07:19.179Z,58.42
2017-11-25T08:08:19.173Z,58.62
2017-11-25T08:09:19.201Z,58.81
2017-11-25T08:10:19.167Z,58.81
2017-11-25T08:11:19.156Z,58.91
2017-11-25T08:12:19.152Z,59.20
2017-11-25T08:13:19.145Z,59.10
2017-11-25T08:14:19.140Z,59.00
2017-11-25T08:15:19.146Z,59.00
2017-11-25T08:16:19.127Z,58.91
2017-11-25T08:17:19.131Z,59.10
2017-11-25T08:18:19.118Z,59.10
2017-11-25T08:19:19.111Z,59.10
2017-11-25T08:20:19.106Z,58.91
2017-11-25T08:21:19.100Z,58.91
2017-11-25T08:22:19.095Z,58.91
2017-11-25T08:23:19.092Z,59.00
2017-11-25T08:24:19.085Z,58.91
2017-11-25T08:25:19.076Z,58.91
2017-11-25T08:26:19.075Z,58.91
2017-11-25T08:27:19.069Z,58.91
2017-11-25T08:28:19.065Z,59.10
2017-11-25T08:29:19.055Z,58.91
2017-11-25T08:30:19.046Z,58.91
2017-11-25T08:31:19.046Z,59.10
2017-11-25T08:32:19.039Z,58.91
2017-11-25T08:33:19.032Z,58.91
2017-11-25T08:34:19.033Z,59.00
2017-11-25T08:35:19.040Z,59.00
2017-11-25T08:36:19.015Z,59.00
2017-11-25T08:37:19.012Z,58.45
2017-11-25T08:38:19.008Z,59.03
2017-11-25T08:39:19.008Z,59.23
2017-11-25T08:40:18.999Z,59.20
2017-11-25T08:41:18.991Z,59.03
2017-11-25T08:42:18.985Z,59.23
2017-11-25T08:43:18.983Z,58.81
2017-11-25T08:44:18.975Z,58.55
2017-11-25T08:45:18.974Z,58.17
2017-11-25T08:46:18.963Z,58.36
2017-11-25T08:47:18.958Z,58.17
2017-11-25T08:48:18.954Z,58.45
2017-11-25T08:49:18.945Z,58.36
2017-11-25T08:50:18.936Z,58.36
2017-11-25T08:51:18.938Z,58.84
2017-11-25T08:52:18.926Z,58.84
2017-11-25T08:53:18.919Z,59.13
2017-11-25T08:54:18.913Z,58.94
2017-11-25T08:55:18.913Z,59.13
2017-11-25T08:56:18.911Z,59.32
2017-11-25T08:57:18.893Z,59.52
2017-11-25T08:58:18.889Z,59.42
2017-11-25T08:59:18.888Z,59.61
2017-11-25T09:00:18.877Z,59.71
2017-11-25T09:01:18.870Z,59.61
2017-11-25T09:02:18.874Z,59.71
2017-11-25T09:03:18.858Z,59.74
2017-11-25T09:04:18.853Z,59.74
2017-11-25T09:05:18.843Z,59.64
2017-11-25T09:06:18.842Z,59.61
2017-11-25T09:07:18.839Z,59.80
2017-11-25T09:08:18.825Z,59.68
2017-11-25T09:09:18.817Z,59.58
2017-11-25T09:10:18.813Z,59.68
2017-11-25T09:11:18.821Z,59.78
2017-11-25T09:12:18.798Z,59.39
2017-11-25T09:13:18.793Z,59.17
2017-11-25T09:14:18.792Z,59.07
2017-11-25T09:15:18.782Z,58.33
2017-11-25T09:16:18.774Z,58.49
2017-11-25T09:17:18.763Z,58.30
2017-11-25T09:18:18.754Z,57.72
2017-11-25T09:19:18.750Z,57.85
2017-11-25T09:20:18.744Z,57.85
2017-11-25T09:21:18.741Z,57.46
2017-11-25T09:22:18.729Z,57.56
2017-11-25T09:23:18.723Z,56.88
2017-11-25T09:24:18.716Z,57.07
2017-11-25T09:25:18.708Z,56.59
2017-11-25T09:26:18.701Z,56.59
2017-11-25T09:27:18.695Z,56.40
2017-11-25T09:28:18.700Z,55.82
2017-11-25T09:29:18.683Z,56.33
2017-11-25T09:30:18.675Z,56.21
2017-11-25T09:31:18.666Z,56.01
2017-11-25T09:32:18.654Z,55.94
2017-11-25T09:33:18.652Z,55.66
2017-11-25T09:34:18.644Z,55.76
2017-11-25T09:35:18.641Z,55.27
2017-11-25T09:36:18.630Z,55.46
2017-11-25T09:37:18.630Z,55.27
2017-11-25T09:38:18.619Z,55.27
2017-11-25T09:39:18.610Z,55.18
2017-11-25T09:40:18.609Z,55.27
2017-11-25T09:41:18.606Z,54.88
2017-11-25T09:42:18.590Z,54.60
2017-11-25T09:43:18.585Z,54.88
2017-11-25T09:44:18.576Z,54.98
2017-11-25T09:45:18.571Z,54.69
2017-11-25T09:46:18.564Z,54.88
2017-11-25T09:47:18.553Z,54.91
2017-11-25T09:48:18.557Z,54.79
2017-11-25T09:49:18.560Z,54.79
2017-11-25T09:50:18.540Z,54.82
2017-11-25T09:51:18.527Z,54.98
2017-11-25T09:52:18.520Z,54.91
2017-11-25T09:53:18.512Z,54.91
2017-11-25T09:54:18.506Z,54.79
2017-11-25T09:55:18.498Z,54.69
2017-11-25T09:56:18.501Z,54.62
2017-11-25T09:57:18.489Z,55.10
2017-11-25T09:58:18.481Z,54.79
2017-11-25T09:59:18.473Z,54.91
2017-11-25T10:00:18.463Z,55.01
2017-11-25T10:01:18.463Z,54.69
2017-11-25T10:02:18.450Z,54.91
2017-11-25T10:03:18.460Z,54.98
2017-11-25T10:04:18.443Z,54.88
2017-11-25T10:05:18.429Z,54.88
2017-11-25T10:06:18.424Z,54.88
2017-11-25T10:07:18.416Z,54.69
2017-11-25T10:08:18.410Z,54.98
2017-11-25T10:09:18.403Z,54.88
2017-11-25T10:10:18.395Z,54.88
2017-11-25T10:11:18.392Z,54.98
2017-11-25T10:12:18.383Z,54.88
2017-11-25T10:13:18.377Z,54.98
2017-11-25T10:14:18.365Z,54.88
2017-11-25T10:15:18.362Z,54.69
2017-11-25T10:16:18.355Z,54.79
2017-11-25T10:17:18.361Z,54.98
2017-11-25T10:18:18.339Z,54.40
2017-11-25T10:19:18.334Z,54.88
2017-11-25T10:20:18.327Z,54.50
2017-11-25T10:21:18.320Z,54.40
2017-11-25T10:22:18.313Z,54.50
2017-11-25T10:23:18.308Z,54.21
2017-11-25T10:24:18.309Z,54.21
2017-11-25T10:25:18.295Z,54.31
2017-11-25T10:26:18.281Z,54.31
2017-11-25T10:27:18.273Z,54.88
2017-11-25T10:28:18.269Z,54.40
2017-11-25T10:29:18.263Z,54.40
2017-11-25T10:30:18.257Z,54.31
2017-11-25T10:31:18.255Z,54.40
2017-11-25T10:32:18.244Z,54.21
2017-11-25T10:33:18.236Z,54.50
2017-11-25T10:34:18.229Z,54.50
2017-11-25T10:35:18.221Z,54.88
2017-11-25T10:36:18.216Z,55.08
2017-11-25T10:37:18.207Z,54.79
2017-11-25T10:38:18.205Z,54.79
2017-11-25T10:39:18.200Z,54.69
2017-11-25T10:40:18.191Z,54.88
2017-11-25T10:41:18.184Z,54.88
2017-11-25T10:42:18.177Z,54.98
2017-11-25T10:43:18.167Z,54.88
2017-11-25T10:44:18.165Z,54.88
2017-11-25T10:45:18.158Z,54.69
2017-11-25T10:46:18.145Z,54.88
2017-11-25T10:47:18.141Z,54.98
2017-11-25T10:48:18.135Z,54.88
2017-11-25T10:49:18.124Z,54.98
2017-11-25T10:50:18.122Z,54.98
2017-11-25T10:51:18.112Z,54.88
2017-11-25T10:52:18.114Z,54.88
2017-11-25T10:53:18.100Z,54.69
2017-11-25T10:54:18.092Z,54.69
2017-11-25T10:55:18.086Z,54.79
2017-11-25T10:56:18.080Z,54.69
2017-11-25T10:57:18.067Z,54.60
2017-11-25T10:58:18.071Z,54.79
2017-11-25T10:59:18.064Z,54.79
2017-11-25T11:00:18.049Z,54.79
2017-11-25T11:01:18.043Z,54.79
2017-11-25T11:02:18.034Z,54.79
2017-11-25T11:03:18.028Z,54.79
2017-11-25T11:04:18.020Z,54.69
2017-11-25T11:05:18.013Z,54.79
2017-11-25T11:06:18.007Z,54.79
2017-11-25T11:07:18.003Z,54.69
2017-11-25T11:08:17.996Z,54.79
2017-11-25T11:09:17.987Z,54.88
2017-11-25T11:10:17.976Z,54.79
2017-11-25T11:11:17.970Z,54.79
2017-11-25T11:12:17.972Z,54.69
2017-11-25T11:13:17.972Z,54.98
2017-11-25T11:14:17.952Z,54.79
2017-11-25T11:15:17.946Z,54.79
2017-11-25T11:16:17.939Z,54.88
2017-11-25T11:17:17.930Z,54.88
2017-11-25T11:18:17.924Z,54.98
2017-11-25T11:19:17.916Z,54.88
2017-11-25T11:20:17.918Z,54.88
2017-11-25T11:21:17.905Z,54.69
2017-11-25T11:22:17.895Z,54.69
2017-11-25T11:23:17.890Z,54.98
2017-11-25T11:24:17.882Z,54.79
2017-11-25T11:25:17.875Z,54.88
2017-11-25T11:26:17.868Z,54.88
2017-11-25T11:27:17.860Z,54.79
2017-11-25T11:28:17.855Z,54.79
2017-11-25T11:29:17.848Z,54.79
2017-11-25T11:30:17.845Z,54.88
2017-11-25T11:31:17.836Z,54.88
2017-11-25T11:32:17.826Z,54.98
2017-11-25T11:33:17.819Z,54.69
2017-11-25T11:34:17.811Z,54.88
2017-11-25T11:35:17.815Z,54.88
2017-11-25T11:36:17.798Z,54.69
2017-11-25T11:37:17.790Z,54.98
2017-11-25T11:38:17.784Z,54.98
2017-11-25T11:39:17.781Z,54.79
2017-11-25T11:40:17.782Z,54.79
2017-11-25T11:41:17.760Z,54.79
2017-11-25T11:42:17.757Z,54.98
2017-11-25T11:43:17.748Z,54.79
2017-11-25T11:44:17.741Z,54.88
2017-11-25T11:45:17.733Z,54.79
2017-11-25T11:46:17.727Z,54.69
2017-11-25T11:47:17.720Z,54.88
2017-11-25T11:48:17.714Z,54.60
2017-11-25T11:49:17.706Z,54.79
2017-11-25T11:50:17.703Z,54.69
2017-11-25T11:51:17.696Z,54.88
2017-11-25T11:52:17.684Z,54.98
2017-11-25T11:53:17.685Z,54.79
2017-11-25T11:54:17.672Z,54.88
2017-11-25T11:55:17.664Z,54.40
2017-11-25T11:56:17.656Z,54.21
2017-11-25T11:57:17.649Z,54.31
2017-11-25T11:58:17.642Z,54.69
2017-11-25T11:59:17.651Z,54.69
2017-11-25T12:00:17.628Z,54.40
2017-11-25T12:01:17.626Z,54.50
2017-11-25T12:02:17.614Z,54.40
2017-11-25T12:03:17.627Z,54.21
2017-11-25T12:04:17.603Z,54.31
2017-11-25T12:05:17.594Z,54.31
2017-11-25T12:06:17.589Z,54.11
2017-11-25T12:07:17.582Z,54.31
2017-11-25T12:08:17.579Z,54.02
2017-11-25T12:09:17.565Z,54.21
2017-11-25T12:10:17.562Z,54.50
2017-11-25T12:11:17.551Z,54.40
2017-11-25T12:12:17.546Z,54.40
2017-11-25T12:13:17.544Z,54.11
2017-11-25T12:14:17.530Z,54.31
2017-11-25T12:15:17.532Z,54.50
2017-11-25T12:16:17.519Z,54.40
2017-11-25T12:17:17.508Z,54.50
2017-11-25T12:18:17.503Z,54.31
2017-11-25T12:19:17.498Z,54.60
2017-11-25T12:20:17.486Z,54.60
2017-11-25T12:21:17.485Z,54.50
2017-11-25T12:22:17.477Z,54.50
2017-11-25T12:23:17.467Z,54.21
2017-11-25T12:24:17.500Z,54.31
2017-11-25T12:25:17.453Z,54.31
2017-11-25T12:26:17.448Z,54.88
2017-11-25T12:27:17.442Z,54.88
2017-11-25T12:28:17.433Z,55.08
2017-11-25T12:29:17.436Z,54.79
2017-11-25T12:30:17.424Z,54.79
2017-11-25T12:31:17.410Z,54.88
2017-11-25T12:32:17.406Z,54.96
2017-11-25T12:33:17.397Z,54.79
2017-11-25T12:34:17.388Z,54.88
2017-11-25T12:35:17.385Z,54.88
2017-11-25T12:36:17.380Z,54.98
2017-11-25T12:37:17.368Z,54.88
2017-11-25T12:38:17.369Z,54.98
2017-11-25T12:39:17.355Z,54.88
2017-11-25T12:40:17.348Z,54.98
2017-11-25T12:41:17.342Z,54.69
2017-11-25T12:42:17.334Z,54.86
2017-11-25T12:43:17.327Z,54.79
2017-11-25T12:44:17.323Z,54.96
2017-11-25T12:45:17.314Z,54.79
2017-11-25T12:46:17.304Z,54.86
2017-11-25T12:47:17.300Z,54.76
2017-11-25T12:48:17.291Z,54.88
2017-11-25T12:49:17.295Z,54.88
2017-11-25T12:50:17.284Z,54.60
2017-11-25T12:51:17.270Z,54.88
2017-11-25T12:52:17.265Z,54.66
2017-11-25T12:53:17.260Z,54.76
2017-11-25T12:54:17.249Z,54.88
2017-11-25T12:55:17.243Z,54.88
2017-11-25T12:56:17.236Z,54.66
2017-11-25T12:57:17.240Z,54.66